sensor_id;sensor_type;location;lat;lon;timestamp;pressure;altitude;pressure_sealevel;temperature;humidity
77685;BME280;66844;46.092;18.268;2023-07-13T00:00:25;99016.44;;;24.82;64.94
77685;BME280;66844;46.092;18.268;2023-07-13T00:00:57;99012.53;;;24.85;64.97
77685;BME280;66844;46.092;18.268;2023-07-13T00:01:29;99007.94;;;24.85;64.70
77685;BME280;66844;46.092;18.268;2023-07-13T00:02:02;99019.28;;;24.89;64.27
77685;BME280;66844;46.092;18.268;2023-07-13T00:02:34;99013.44;;;24.92;64.59
77685;BME280;66844;46.092;18.268;2023-07-13T00:03:06;99010.53;;;24.93;63.96
77685;BME280;66844;46.092;18.268;2023-07-13T00:03:38;99012.88;;;24.96;63.85
77685;BME280;66844;46.092;18.268;2023-07-13T00:04:13;99010.34;;;24.95;64.07
77685;BME280;66844;46.092;18.268;2023-07-13T00:04:46;99018.50;;;24.95;64.18
77685;BME280;66844;46.092;18.268;2023-07-13T00:05:18;99010.16;;;24.96;63.74
77685;BME280;66844;46.092;18.268;2023-07-13T00:05:58;99011.00;;;24.97;63.92
77685;BME280;66844;46.092;18.268;2023-07-13T00:06:30;99018.97;;;24.98;64.14
77685;BME280;66844;46.092;18.268;2023-07-13T00:07:04;99011.66;;;24.99;64.08
77685;BME280;66844;46.092;18.268;2023-07-13T00:07:36;99020.28;;;25.02;63.83
77685;BME280;66844;46.092;18.268;2023-07-13T00:08:09;99016.69;;;25.02;63.59
77685;BME280;66844;46.092;18.268;2023-07-13T00:08:43;99012.66;;;24.98;63.91
77685;BME280;66844;46.092;18.268;2023-07-13T00:09:16;99015.41;;;24.98;64.36
77685;BME280;66844;46.092;18.268;2023-07-13T00:09:48;99015.59;;;24.96;63.91
77685;BME280;66844;46.092;18.268;2023-07-13T00:10:21;99023.31;;;24.93;64.08
77685;BME280;66844;46.092;18.268;2023-07-13T00:10:53;99020.50;;;24.86;65.26
77685;BME280;66844;46.092;18.268;2023-07-13T00:11:29;99013.00;;;24.88;64.51
77685;BME280;66844;46.092;18.268;2023-07-13T00:12:02;99022.19;;;24.87;64.58
77685;BME280;66844;46.092;18.268;2023-07-13T00:12:38;99019.16;;;24.82;64.67
77685;BME280;66844;46.092;18.268;2023-07-13T00:13:14;99011.19;;;24.81;64.83
77685;BME280;66844;46.092;18.268;2023-07-13T00:13:46;99017.00;;;24.78;65.32
77685;BME280;66844;46.092;18.268;2023-07-13T00:14:18;99006.31;;;24.76;65.60
77685;BME280;66844;46.092;18.268;2023-07-13T00:14:50;99006.78;;;24.65;65.37
77685;BME280;66844;46.092;18.268;2023-07-13T00:15:24;99009.25;;;24.60;66.11
77685;BME280;66844;46.092;18.268;2023-07-13T00:15:58;99002.50;;;24.56;66.48
77685;BME280;66844;46.092;18.268;2023-07-13T00:16:30;99008.88;;;24.63;65.81
77685;BME280;66844;46.092;18.268;2023-07-13T00:17:03;99007.19;;;24.62;65.65
77685;BME280;66844;46.092;18.268;2023-07-13T00:17:36;99001.28;;;24.58;66.09
77685;BME280;66844;46.092;18.268;2023-07-13T00:18:10;98999.97;;;24.54;65.95
77685;BME280;66844;46.092;18.268;2023-07-13T00:18:42;99000.91;;;24.47;67.09
77685;BME280;66844;46.092;18.268;2023-07-13T00:19:14;99001.00;;;24.39;66.92
77685;BME280;66844;46.092;18.268;2023-07-13T00:19:47;98996.97;;;24.35;66.98
77685;BME280;66844;46.092;18.268;2023-07-13T00:20:19;98993.78;;;24.31;67.30
77685;BME280;66844;46.092;18.268;2023-07-13T00:20:53;99000.81;;;24.26;67.72
77685;BME280;66844;46.092;18.268;2023-07-13T00:21:25;98995.41;;;24.26;66.79
77685;BME280;66844;46.092;18.268;2023-07-13T00:21:57;98998.28;;;24.24;67.38
77685;BME280;66844;46.092;18.268;2023-07-13T00:22:29;98999.81;;;24.27;66.97
77685;BME280;66844;46.092;18.268;2023-07-13T00:23:01;98998.09;;;24.26;67.00
77685;BME280;66844;46.092;18.268;2023-07-13T00:23:37;98989.75;;;24.27;66.64
77685;BME280;66844;46.092;18.268;2023-07-13T00:24:15;99000.44;;;24.29;67.32
77685;BME280;66844;46.092;18.268;2023-07-13T00:24:48;98995.31;;;24.34;65.95
77685;BME280;66844;46.092;18.268;2023-07-13T00:25:21;98994.16;;;24.28;66.31
77685;BME280;66844;46.092;18.268;2023-07-13T00:25:56;99003.00;;;24.30;66.62
77685;BME280;66844;46.092;18.268;2023-07-13T00:26:29;99001.47;;;24.28;66.88
77685;BME280;66844;46.092;18.268;2023-07-13T00:27:01;98996.97;;;24.35;65.52
77685;BME280;66844;46.092;18.268;2023-07-13T00:27:33;98994.63;;;24.46;65.28
77685;BME280;66844;46.092;18.268;2023-07-13T00:28:06;98995.09;;;24.50;65.38
77685;BME280;66844;46.092;18.268;2023-07-13T00:28:38;98991.88;;;24.61;64.33
77685;BME280;66844;46.092;18.268;2023-07-13T00:29:12;98991.78;;;24.69;64.22
77685;BME280;66844;46.092;18.268;2023-07-13T00:29:45;98991.22;;;24.74;63.89
77685;BME280;66844;46.092;18.268;2023-07-13T00:30:17;98991.84;;;24.76;63.11
77685;BME280;66844;46.092;18.268;2023-07-13T00:30:49;98988.09;;;24.77;63.49
77685;BME280;66844;46.092;18.268;2023-07-13T00:31:21;98997.75;;;24.79;63.57
77685;BME280;66844;46.092;18.268;2023-07-13T00:31:53;98995.50;;;24.83;63.29
77685;BME280;66844;46.092;18.268;2023-07-13T00:32:26;98994.84;;;24.81;62.97
77685;BME280;66844;46.092;18.268;2023-07-13T00:32:58;98989.25;;;24.82;63.08
77685;BME280;66844;46.092;18.268;2023-07-13T00:33:48;98992.97;;;24.81;63.21
77685;BME280;66844;46.092;18.268;2023-07-13T00:34:20;98987.09;;;24.78;63.24
77685;BME280;66844;46.092;18.268;2023-07-13T00:34:52;98989.25;;;24.82;63.33
77685;BME280;66844;46.092;18.268;2023-07-13T00:35:25;98990.56;;;24.86;63.08
77685;BME280;66844;46.092;18.268;2023-07-13T00:35:57;98992.25;;;24.87;62.75
77685;BME280;66844;46.092;18.268;2023-07-13T00:36:30;98987.84;;;24.86;64.01
77685;BME280;66844;46.092;18.268;2023-07-13T00:37:02;98987.72;;;24.80;63.90
77685;BME280;66844;46.092;18.268;2023-07-13T00:37:34;98989.34;;;24.74;64.18
77685;BME280;66844;46.092;18.268;2023-07-13T00:38:07;98990.53;;;24.72;64.52
77685;BME280;66844;46.092;18.268;2023-07-13T00:38:39;98989.63;;;24.64;65.39
77685;BME280;66844;46.092;18.268;2023-07-13T00:39:12;98990.09;;;24.53;65.70
77685;BME280;66844;46.092;18.268;2023-07-13T00:39:44;98998.00;;;24.48;66.29
77685;BME280;66844;46.092;18.268;2023-07-13T00:40:16;98995.19;;;24.42;66.49
77685;BME280;66844;46.092;18.268;2023-07-13T00:40:48;98996.22;;;24.41;66.71
77685;BME280;66844;46.092;18.268;2023-07-13T00:41:20;98997.09;;;24.41;66.40
77685;BME280;66844;46.092;18.268;2023-07-13T00:41:52;98998.50;;;24.37;66.62
77685;BME280;66844;46.092;18.268;2023-07-13T00:42:24;98995.78;;;24.37;66.42
77685;BME280;66844;46.092;18.268;2023-07-13T00:42:58;98998.09;;;24.40;66.28
77685;BME280;66844;46.092;18.268;2023-07-13T00:43:30;98999.81;;;24.41;66.83
77685;BME280;66844;46.092;18.268;2023-07-13T00:44:02;99006.44;;;24.39;66.50
77685;BME280;66844;46.092;18.268;2023-07-13T00:44:34;99006.34;;;24.32;67.63
77685;BME280;66844;46.092;18.268;2023-07-13T00:46:18;98998.75;;;24.28;66.83
77685;BME280;66844;46.092;18.268;2023-07-13T00:46:33;99000.75;;;24.19;67.77
77685;BME280;66844;46.092;18.268;2023-07-13T00:47:06;98996.50;;;24.17;68.23
77685;BME280;66844;46.092;18.268;2023-07-13T00:47:39;98995.66;;;24.16;67.81
77685;BME280;66844;46.092;18.268;2023-07-13T00:48:15;99004.84;;;24.15;67.31
77685;BME280;66844;46.092;18.268;2023-07-13T00:48:48;98998.38;;;24.16;67.36
77685;BME280;66844;46.092;18.268;2023-07-13T00:49:23;98999.69;;;24.20;67.46
77685;BME280;66844;46.092;18.268;2023-07-13T00:49:55;98993.88;;;24.23;66.90
77685;BME280;66844;46.092;18.268;2023-07-13T00:50:28;98992.19;;;24.22;68.05
77685;BME280;66844;46.092;18.268;2023-07-13T00:51:01;98989.66;;;24.21;67.87
77685;BME280;66844;46.092;18.268;2023-07-13T00:51:49;98989.03;;;24.19;68.26
77685;BME280;66844;46.092;18.268;2023-07-13T00:52:22;98990.56;;;24.13;68.87
77685;BME280;66844;46.092;18.268;2023-07-13T00:52:55;98990.75;;;24.11;68.31
77685;BME280;66844;46.092;18.268;2023-07-13T00:53:32;98985.03;;;24.06;68.74
77685;BME280;66844;46.092;18.268;2023-07-13T00:54:10;98980.34;;;24.00;68.78
77685;BME280;66844;46.092;18.268;2023-07-13T00:54:45;98984.25;;;23.98;69.25
77685;BME280;66844;46.092;18.268;2023-07-13T00:55:18;98989.59;;;23.91;70.12
77685;BME280;66844;46.092;18.268;2023-07-13T00:55:53;98980.44;;;23.92;69.44
77685;BME280;66844;46.092;18.268;2023-07-13T00:56:26;98986.50;;;23.94;69.03
77685;BME280;66844;46.092;18.268;2023-07-13T00:57:03;98979.50;;;24.00;68.46
77685;BME280;66844;46.092;18.268;2023-07-13T00:57:36;98984.94;;;24.00;68.75
77685;BME280;66844;46.092;18.268;2023-07-13T00:58:08;98987.19;;;23.96;69.03
77685;BME280;66844;46.092;18.268;2023-07-13T00:58:41;98985.09;;;23.84;70.13
77685;BME280;66844;46.092;18.268;2023-07-13T00:59:15;98985.94;;;23.84;70.05
77685;BME280;66844;46.092;18.268;2023-07-13T00:59:53;98991.22;;;23.86;69.49
77685;BME280;66844;46.092;18.268;2023-07-13T01:00:28;98987.81;;;23.84;69.48
77685;BME280;66844;46.092;18.268;2023-07-13T01:01:00;98986.78;;;23.85;70.12
77685;BME280;66844;46.092;18.268;2023-07-13T01:01:32;98989.69;;;23.83;69.89
77685;BME280;66844;46.092;18.268;2023-07-13T01:02:04;98987.34;;;23.80;70.03
77685;BME280;66844;46.092;18.268;2023-07-13T01:02:38;98984.44;;;23.82;69.95
77685;BME280;66844;46.092;18.268;2023-07-13T01:03:11;98981.75;;;23.82;69.86
77685;BME280;66844;46.092;18.268;2023-07-13T01:03:43;98978.88;;;23.75;69.92
77685;BME280;66844;46.092;18.268;2023-07-13T01:04:16;98990.22;;;23.79;69.60
77685;BME280;66844;46.092;18.268;2023-07-13T01:04:49;98986.03;;;23.76;70.11
77685;BME280;66844;46.092;18.268;2023-07-13T01:05:22;98979.09;;;23.74;69.66
77685;BME280;66844;46.092;18.268;2023-07-13T01:05:55;98987.88;;;23.76;70.04
77685;BME280;66844;46.092;18.268;2023-07-13T01:06:27;98983.31;;;23.76;70.03
77685;BME280;66844;46.092;18.268;2023-07-13T01:07:00;98985.84;;;23.78;69.22
77685;BME280;66844;46.092;18.268;2023-07-13T01:07:32;98985.47;;;23.81;68.82
77685;BME280;66844;46.092;18.268;2023-07-13T01:08:04;98986.13;;;23.83;68.63
77685;BME280;66844;46.092;18.268;2023-07-13T01:08:37;98978.25;;;23.88;67.90
77685;BME280;66844;46.092;18.268;2023-07-13T01:09:10;98974.25;;;23.98;67.88
77685;BME280;66844;46.092;18.268;2023-07-13T01:09:42;98975.72;;;24.01;67.40
77685;BME280;66844;46.092;18.268;2023-07-13T01:10:18;98973.22;;;23.99;68.59
77685;BME280;66844;46.092;18.268;2023-07-13T01:10:56;98967.78;;;23.99;68.36
77685;BME280;66844;46.092;18.268;2023-07-13T01:11:30;98971.34;;;24.00;68.04
77685;BME280;66844;46.092;18.268;2023-07-13T01:12:02;98977.44;;;24.02;67.91
77685;BME280;66844;46.092;18.268;2023-07-13T01:12:34;98968.72;;;24.06;66.88
77685;BME280;66844;46.092;18.268;2023-07-13T01:13:09;98965.25;;;24.12;67.33
77685;BME280;66844;46.092;18.268;2023-07-13T01:13:41;98969.31;;;24.17;67.04
77685;BME280;66844;46.092;18.268;2023-07-13T01:14:13;98965.19;;;24.21;66.52
77685;BME280;66844;46.092;18.268;2023-07-13T01:14:45;98975.13;;;24.28;65.84
77685;BME280;66844;46.092;18.268;2023-07-13T01:15:37;98966.50;;;24.39;65.35
77685;BME280;66844;46.092;18.268;2023-07-13T01:16:18;98960.50;;;24.44;64.64
77685;BME280;66844;46.092;18.268;2023-07-13T01:16:51;98960.19;;;24.53;64.97
77685;BME280;66844;46.092;18.268;2023-07-13T01:17:24;98959.44;;;24.59;64.42
77685;BME280;66844;46.092;18.268;2023-07-13T01:17:56;98955.56;;;24.69;63.38
77685;BME280;66844;46.092;18.268;2023-07-13T01:18:29;98957.09;;;24.71;63.63
77685;BME280;66844;46.092;18.268;2023-07-13T01:19:05;98947.88;;;24.72;63.90
77685;BME280;66844;46.092;18.268;2023-07-13T01:19:42;98944.75;;;24.75;63.14
77685;BME280;66844;46.092;18.268;2023-07-13T01:20:15;98949.63;;;24.80;63.17
77685;BME280;66844;46.092;18.268;2023-07-13T01:20:55;98951.06;;;24.61;65.00
77685;BME280;66844;46.092;18.268;2023-07-13T01:21:28;98948.47;;;24.68;64.50
77685;BME280;66844;46.092;18.268;2023-07-13T01:22:03;98954.16;;;24.73;63.58
77685;BME280;66844;46.092;18.268;2023-07-13T01:22:36;98956.94;;;24.79;63.29
77685;BME280;66844;46.092;18.268;2023-07-13T01:23:10;98953.19;;;24.80;62.94
77685;BME280;66844;46.092;18.268;2023-07-13T01:23:45;98959.47;;;24.81;63.41
77685;BME280;66844;46.092;18.268;2023-07-13T01:24:17;98954.69;;;24.83;63.18
77685;BME280;66844;46.092;18.268;2023-07-13T01:24:49;98961.56;;;24.79;63.37
77685;BME280;66844;46.092;18.268;2023-07-13T01:25:21;98959.81;;;24.71;64.23
77685;BME280;66844;46.092;18.268;2023-07-13T01:25:53;98962.06;;;24.68;64.56
77685;BME280;66844;46.092;18.268;2023-07-13T01:26:25;98964.88;;;24.59;65.32
77685;BME280;66844;46.092;18.268;2023-07-13T01:26:58;98963.38;;;24.57;65.50
77685;BME280;66844;46.092;18.268;2023-07-13T01:27:30;98963.19;;;24.58;65.04
77685;BME280;66844;46.092;18.268;2023-07-13T01:28:06;98952.34;;;24.44;66.55
77685;BME280;66844;46.092;18.268;2023-07-13T01:28:40;98958.91;;;24.35;67.15
77685;BME280;66844;46.092;18.268;2023-07-13T01:29:12;98954.13;;;24.07;67.63
77685;BME280;66844;46.092;18.268;2023-07-13T01:29:44;98942.66;;;23.97;68.31
77685;BME280;66844;46.092;18.268;2023-07-13T01:30:19;98948.47;;;23.94;68.02
77685;BME280;66844;46.092;18.268;2023-07-13T01:30:51;98949.50;;;23.93;68.11
77685;BME280;66844;46.092;18.268;2023-07-13T01:31:23;98957.16;;;23.90;68.00
77685;BME280;66844;46.092;18.268;2023-07-13T01:31:55;98951.75;;;23.90;68.74
77685;BME280;66844;46.092;18.268;2023-07-13T01:32:27;98953.03;;;23.79;69.37
77685;BME280;66844;46.092;18.268;2023-07-13T01:32:59;98964.34;;;23.68;69.84
77685;BME280;66844;46.092;18.268;2023-07-13T01:33:31;98958.81;;;23.61;70.43
77685;BME280;66844;46.092;18.268;2023-07-13T01:34:03;98966.59;;;23.64;70.09
77685;BME280;66844;46.092;18.268;2023-07-13T01:34:35;98955.75;;;23.64;69.60
77685;BME280;66844;46.092;18.268;2023-07-13T01:35:08;98961.72;;;23.60;70.00
77685;BME280;66844;46.092;18.268;2023-07-13T01:35:41;98954.69;;;23.51;69.91
77685;BME280;66844;46.092;18.268;2023-07-13T01:36:13;98957.94;;;23.46;70.60
77685;BME280;66844;46.092;18.268;2023-07-13T01:36:45;98960.88;;;23.45;71.20
77685;BME280;66844;46.092;18.268;2023-07-13T01:37:17;98953.91;;;23.42;71.48
77685;BME280;66844;46.092;18.268;2023-07-13T01:37:49;98958.66;;;23.40;71.53
77685;BME280;66844;46.092;18.268;2023-07-13T01:38:22;98945.09;;;23.40;71.48
77685;BME280;66844;46.092;18.268;2023-07-13T01:38:54;98951.34;;;23.41;70.64
77685;BME280;66844;46.092;18.268;2023-07-13T01:39:26;98947.78;;;23.40;71.21
77685;BME280;66844;46.092;18.268;2023-07-13T01:39:59;98950.47;;;23.48;70.10
77685;BME280;66844;46.092;18.268;2023-07-13T01:40:32;98945.22;;;23.47;70.07
77685;BME280;66844;46.092;18.268;2023-07-13T01:41:04;98939.78;;;23.47;70.13
77685;BME280;66844;46.092;18.268;2023-07-13T01:41:36;98946.53;;;23.51;70.22
77685;BME280;66844;46.092;18.268;2023-07-13T01:42:08;98946.34;;;23.52;70.22
77685;BME280;66844;46.092;18.268;2023-07-13T01:42:41;98945.53;;;23.52;70.25
77685;BME280;66844;46.092;18.268;2023-07-13T01:43:13;98947.56;;;23.50;70.16
77685;BME280;66844;46.092;18.268;2023-07-13T01:43:45;98951.28;;;23.49;70.01
77685;BME280;66844;46.092;18.268;2023-07-13T01:44:17;98944.00;;;23.49;70.44
77685;BME280;66844;46.092;18.268;2023-07-13T01:44:49;98937.72;;;23.49;70.05
77685;BME280;66844;46.092;18.268;2023-07-13T01:45:21;98941.13;;;23.51;70.59
77685;BME280;66844;46.092;18.268;2023-07-13T01:45:53;98933.59;;;23.53;70.07
77685;BME280;66844;46.092;18.268;2023-07-13T01:46:40;98941.22;;;23.57;69.81
77685;BME280;66844;46.092;18.268;2023-07-13T01:47:13;98927.47;;;23.59;70.08
77685;BME280;66844;46.092;18.268;2023-07-13T01:47:45;98929.97;;;23.60;70.03
77685;BME280;66844;46.092;18.268;2023-07-13T01:48:17;98933.38;;;23.62;69.48
77685;BME280;66844;46.092;18.268;2023-07-13T01:48:50;98926.22;;;23.61;69.76
77685;BME280;66844;46.092;18.268;2023-07-13T01:49:22;98927.72;;;23.64;69.07
77685;BME280;66844;46.092;18.268;2023-07-13T01:49:54;98920.81;;;23.61;70.05
77685;BME280;66844;46.092;18.268;2023-07-13T01:50:27;98925.00;;;23.64;69.10
77685;BME280;66844;46.092;18.268;2023-07-13T01:50:59;98933.53;;;23.61;69.73
77685;BME280;66844;46.092;18.268;2023-07-13T01:51:31;98927.94;;;23.62;68.98
77685;BME280;66844;46.092;18.268;2023-07-13T01:52:03;98932.50;;;23.62;69.94
77685;BME280;66844;46.092;18.268;2023-07-13T01:52:36;98932.69;;;23.60;69.39
77685;BME280;66844;46.092;18.268;2023-07-13T01:53:09;98929.59;;;23.63;69.31
77685;BME280;66844;46.092;18.268;2023-07-13T01:53:40;98926.34;;;23.68;69.03
77685;BME280;66844;46.092;18.268;2023-07-13T01:54:12;98927.00;;;23.70;69.04
77685;BME280;66844;46.092;18.268;2023-07-13T01:54:44;98924.94;;;23.72;68.36
77685;BME280;66844;46.092;18.268;2023-07-13T01:55:16;98927.28;;;23.75;68.93
77685;BME280;66844;46.092;18.268;2023-07-13T01:55:48;98929.19;;;23.75;69.06
77685;BME280;66844;46.092;18.268;2023-07-13T01:56:20;98922.44;;;23.71;69.16
77685;BME280;66844;46.092;18.268;2023-07-13T01:56:52;98917.00;;;23.71;68.97
77685;BME280;66844;46.092;18.268;2023-07-13T01:57:24;98921.03;;;23.75;68.50
77685;BME280;66844;46.092;18.268;2023-07-13T01:57:56;98912.03;;;23.74;68.31
77685;BME280;66844;46.092;18.268;2023-07-13T01:58:28;98914.75;;;23.74;68.81
77685;BME280;66844;46.092;18.268;2023-07-13T01:59:00;98912.66;;;23.76;68.80
77685;BME280;66844;46.092;18.268;2023-07-13T01:59:32;98911.19;;;23.74;68.72
77685;BME280;66844;46.092;18.268;2023-07-13T02:00:06;98917.47;;;23.74;68.94
77685;BME280;66844;46.092;18.268;2023-07-13T02:00:39;98909.47;;;23.73;68.57
77685;BME280;66844;46.092;18.268;2023-07-13T02:01:11;98919.50;;;23.72;68.68
77685;BME280;66844;46.092;18.268;2023-07-13T02:01:43;98917.81;;;23.71;69.13
77685;BME280;66844;46.092;18.268;2023-07-13T02:02:15;98910.50;;;23.72;69.33
77685;BME280;66844;46.092;18.268;2023-07-13T02:02:47;98917.63;;;23.73;68.28
77685;BME280;66844;46.092;18.268;2023-07-13T02:03:19;98919.13;;;23.75;68.81
77685;BME280;66844;46.092;18.268;2023-07-13T02:03:51;98923.53;;;23.76;68.25
77685;BME280;66844;46.092;18.268;2023-07-13T02:04:23;98922.31;;;23.79;68.25
77685;BME280;66844;46.092;18.268;2023-07-13T02:04:55;98921.50;;;23.78;68.38
77685;BME280;66844;46.092;18.268;2023-07-13T02:05:27;98924.84;;;23.80;68.09
77685;BME280;66844;46.092;18.268;2023-07-13T02:05:59;98927.41;;;23.82;67.90
77685;BME280;66844;46.092;18.268;2023-07-13T02:06:31;98925.50;;;23.82;68.39
77685;BME280;66844;46.092;18.268;2023-07-13T02:07:03;98922.59;;;23.84;68.46
77685;BME280;66844;46.092;18.268;2023-07-13T02:07:35;98924.09;;;23.86;68.18
77685;BME280;66844;46.092;18.268;2023-07-13T02:08:07;98921.22;;;23.88;68.34
77685;BME280;66844;46.092;18.268;2023-07-13T02:08:40;98915.31;;;23.84;67.82
77685;BME280;66844;46.092;18.268;2023-07-13T02:09:13;98916.31;;;23.83;68.57
77685;BME280;66844;46.092;18.268;2023-07-13T02:09:45;98910.41;;;23.80;68.67
77685;BME280;66844;46.092;18.268;2023-07-13T02:10:17;98898.06;;;23.77;68.10
77685;BME280;66844;46.092;18.268;2023-07-13T02:10:49;98902.66;;;23.77;67.78
77685;BME280;66844;46.092;18.268;2023-07-13T02:11:21;98897.41;;;23.75;67.98
77685;BME280;66844;46.092;18.268;2023-07-13T02:11:53;98885.72;;;23.75;67.88
77685;BME280;66844;46.092;18.268;2023-07-13T02:12:25;98890.94;;;23.76;67.94
77685;BME280;66844;46.092;18.268;2023-07-13T02:12:57;98893.66;;;23.76;67.99
77685;BME280;66844;46.092;18.268;2023-07-13T02:13:29;98891.50;;;23.72;68.93
77685;BME280;66844;46.092;18.268;2023-07-13T02:14:02;98888.13;;;23.70;69.20
77685;BME280;66844;46.092;18.268;2023-07-13T02:14:34;98888.59;;;23.73;68.57
77685;BME280;66844;46.092;18.268;2023-07-13T02:15:07;98890.28;;;23.74;68.46
77685;BME280;66844;46.092;18.268;2023-07-13T02:15:39;98886.53;;;23.75;68.14
77685;BME280;66844;46.092;18.268;2023-07-13T02:16:12;98890.09;;;23.76;67.91
77685;BME280;66844;46.092;18.268;2023-07-13T02:16:45;98894.50;;;23.77;68.56
77685;BME280;66844;46.092;18.268;2023-07-13T02:17:17;98896.84;;;23.80;67.95
77685;BME280;66844;46.092;18.268;2023-07-13T02:17:49;98903.28;;;23.79;68.54
77685;BME280;66844;46.092;18.268;2023-07-13T02:18:21;98897.84;;;23.79;68.70
77685;BME280;66844;46.092;18.268;2023-07-13T02:18:53;98900.78;;;23.77;68.82
77685;BME280;66844;46.092;18.268;2023-07-13T02:19:26;98900.78;;;23.77;68.69
77685;BME280;66844;46.092;18.268;2023-07-13T02:19:58;98900.97;;;23.76;67.93
77685;BME280;66844;46.092;18.268;2023-07-13T02:20:30;98905.00;;;23.80;68.18
77685;BME280;66844;46.092;18.268;2023-07-13T02:21:03;98902.75;;;23.83;67.55
77685;BME280;66844;46.092;18.268;2023-07-13T02:21:35;98911.56;;;23.85;67.83
77685;BME280;66844;46.092;18.268;2023-07-13T02:22:07;98903.41;;;23.85;68.16
77685;BME280;66844;46.092;18.268;2023-07-13T02:22:39;98903.75;;;23.82;67.59
77685;BME280;66844;46.092;18.268;2023-07-13T02:23:11;98908.84;;;23.85;67.82
77685;BME280;66844;46.092;18.268;2023-07-13T02:23:43;98911.38;;;23.87;67.41
77685;BME280;66844;46.092;18.268;2023-07-13T02:24:15;98906.78;;;23.87;67.31
77685;BME280;66844;46.092;18.268;2023-07-13T02:24:50;98903.22;;;23.87;67.27
77685;BME280;66844;46.092;18.268;2023-07-13T02:25:22;98900.97;;;23.90;67.98
77685;BME280;66844;46.092;18.268;2023-07-13T02:25:55;98905.00;;;23.94;67.48
77685;BME280;66844;46.092;18.268;2023-07-13T02:26:28;98902.09;;;23.96;67.76
77685;BME280;66844;46.092;18.268;2023-07-13T02:27:00;98899.56;;;23.94;68.61
77685;BME280;66844;46.092;18.268;2023-07-13T02:27:32;98906.97;;;23.86;68.42
77685;BME280;66844;46.092;18.268;2023-07-13T02:28:04;98907.72;;;23.80;68.32
77685;BME280;66844;46.092;18.268;2023-07-13T02:28:36;98902.81;;;23.75;68.57
77685;BME280;66844;46.092;18.268;2023-07-13T02:29:07;98899.28;;;23.75;68.70
77685;BME280;66844;46.092;18.268;2023-07-13T02:29:40;98892.72;;;23.69;69.33
77685;BME280;66844;46.092;18.268;2023-07-13T02:30:12;98904.06;;;23.73;69.08
77685;BME280;66844;46.092;18.268;2023-07-13T02:30:44;98913.22;;;23.72;68.53
77685;BME280;66844;46.092;18.268;2023-07-13T02:31:16;98910.41;;;23.65;69.71
77685;BME280;66844;46.092;18.268;2023-07-13T02:31:48;98905.81;;;23.65;68.94
77685;BME280;66844;46.092;18.268;2023-07-13T02:32:20;98914.34;;;23.62;69.21
77685;BME280;66844;46.092;18.268;2023-07-13T02:32:52;98909.56;;;23.64;69.09
77685;BME280;66844;46.092;18.268;2023-07-13T02:33:24;98919.78;;;23.62;69.67
77685;BME280;66844;46.092;18.268;2023-07-13T02:33:56;98913.69;;;23.60;70.03
77685;BME280;66844;46.092;18.268;2023-07-13T02:34:28;98924.75;;;23.59;69.51
77685;BME280;66844;46.092;18.268;2023-07-13T02:35:04;98923.22;;;23.56;69.62
77685;BME280;66844;46.092;18.268;2023-07-13T02:35:36;98919.00;;;23.54;69.68
77685;BME280;66844;46.092;18.268;2023-07-13T02:36:08;98928.66;;;23.56;69.39
77685;BME280;66844;46.092;18.268;2023-07-13T02:36:41;98924.28;;;23.55;69.26
77685;BME280;66844;46.092;18.268;2023-07-13T02:37:13;98926.31;;;23.53;69.52
77685;BME280;66844;46.092;18.268;2023-07-13T02:37:45;98925.94;;;23.56;70.17
77685;BME280;66844;46.092;18.268;2023-07-13T02:38:17;98928.84;;;23.55;69.68
77685;BME280;66844;46.092;18.268;2023-07-13T02:38:50;98921.56;;;23.55;70.10
77685;BME280;66844;46.092;18.268;2023-07-13T02:39:22;98929.88;;;23.54;69.95
77685;BME280;66844;46.092;18.268;2023-07-13T02:39:54;98915.44;;;23.53;69.74
77685;BME280;66844;46.092;18.268;2023-07-13T02:40:25;98920.72;;;23.55;70.34
77685;BME280;66844;46.092;18.268;2023-07-13T02:40:57;98917.78;;;23.56;70.16
77685;BME280;66844;46.092;18.268;2023-07-13T02:41:29;98916.28;;;23.54;70.01
77685;BME280;66844;46.092;18.268;2023-07-13T02:42:01;98915.66;;;23.52;69.99
77685;BME280;66844;46.092;18.268;2023-07-13T02:42:35;98918.00;;;23.55;70.20
77685;BME280;66844;46.092;18.268;2023-07-13T02:43:12;98921.72;;;23.54;69.83
77685;BME280;66844;46.092;18.268;2023-07-13T02:43:44;98911.03;;;23.52;70.81
77685;BME280;66844;46.092;18.268;2023-07-13T02:44:16;98925.47;;;23.53;70.90
77685;BME280;66844;46.092;18.268;2023-07-13T02:44:47;98920.03;;;23.53;70.16
77685;BME280;66844;46.092;18.268;2023-07-13T02:45:21;98926.31;;;23.53;70.43
77685;BME280;66844;46.092;18.268;2023-07-13T02:45:53;98926.31;;;23.53;70.84
77685;BME280;66844;46.092;18.268;2023-07-13T02:46:25;98924.81;;;23.51;70.35
77685;BME280;66844;46.092;18.268;2023-07-13T02:46:57;98930.03;;;23.52;70.43
77685;BME280;66844;46.092;18.268;2023-07-13T02:47:31;98929.03;;;23.53;70.73
77685;BME280;66844;46.092;18.268;2023-07-13T02:48:03;98931.09;;;23.51;70.39
77685;BME280;66844;46.092;18.268;2023-07-13T02:48:38;98924.44;;;23.54;70.89
77685;BME280;66844;46.092;18.268;2023-07-13T02:49:11;98927.31;;;23.52;70.80
77685;BME280;66844;46.092;18.268;2023-07-13T02:49:43;98932.75;;;23.52;70.32
77685;BME280;66844;46.092;18.268;2023-07-13T02:50:15;98930.25;;;23.51;71.24
77685;BME280;66844;46.092;18.268;2023-07-13T02:50:47;98932.28;;;23.49;70.65
77685;BME280;66844;46.092;18.268;2023-07-13T02:51:19;98933.13;;;23.49;70.31
77685;BME280;66844;46.092;18.268;2023-07-13T02:51:51;98937.53;;;23.50;71.41
77685;BME280;66844;46.092;18.268;2023-07-13T02:52:24;98938.78;;;23.48;70.88
77685;BME280;66844;46.092;18.268;2023-07-13T02:52:56;98946.91;;;23.48;71.27
77685;BME280;66844;46.092;18.268;2023-07-13T02:53:28;98931.47;;;23.48;70.86